METAR Data
IDs: Format: Raw Decoded Include TAF

Data at: 0122 UTC 01 Mar 2021

OMDW 010100Z 12005KT CAVOK 12/09 Q1015 NOSIG